createdAt,value
2022-09-10T00:00:43.557Z,13.87
2022-09-10T00:05:41.694Z,14.04
2022-09-10T00:10:43.485Z,14.05
2022-09-10T00:15:46.306Z,14.08
2022-09-10T00:20:47.886Z,14.13
2022-09-10T00:25:44.900Z,14.12
2022-09-10T00:30:46.063Z,14.13
2022-09-10T00:35:42.609Z,14.28
2022-09-10T00:40:40.262Z,14.31
2022-09-10T00:45:36.714Z,14.36
2022-09-10T00:50:38.115Z,14.36
2022-09-10T00:55:42.286Z,14.39
2022-09-10T01:00:41.263Z,14.29
2022-09-10T01:05:42.357Z,14.24
2022-09-10T01:10:50.620Z,14.23
2022-09-10T01:16:08.733Z,14.23
2022-09-10T01:21:16.173Z,14.29
2022-09-10T01:26:43.521Z,14.35
2022-09-10T01:31:55.583Z,14.39
2022-09-10T01:36:56.132Z,14.38
2022-09-10T01:41:54.498Z,14.37
2022-09-10T01:47:08.929Z,14.33
2022-09-10T01:52:25.426Z,14.42
2022-09-10T01:57:55.394Z,14.50
2022-09-10T02:03:11.252Z,14.53
2022-09-10T02:08:11.922Z,14.47
2022-09-10T02:13:08.320Z,14.41
2022-09-10T02:18:05.645Z,14.34
2022-09-10T02:23:02.679Z,14.36
2022-09-10T02:27:59.514Z,14.46
2022-09-10T02:32:56.037Z,14.42
2022-09-10T02:37:53.337Z,14.39
2022-09-10T02:42:49.710Z,14.48
2022-09-10T02:47:46.013Z,14.48
2022-09-10T02:52:42.986Z,14.47
2022-09-10T02:57:39.937Z,14.57
2022-09-10T03:02:36.798Z,14.51
2022-09-10T03:07:34.275Z,14.62
2022-09-10T03:12:30.665Z,14.55
2022-09-10T03:17:27.057Z,14.52
2022-09-10T03:22:23.340Z,14.42
2022-09-10T03:27:20.468Z,14.31
2022-09-10T03:32:16.762Z,14.29
2022-09-10T03:37:14.048Z,14.21
2022-09-10T03:42:11.139Z,14.09
2022-09-10T03:47:07.572Z,13.94
2022-09-10T03:52:03.995Z,13.90
2022-09-10T03:57:02.983Z,13.76
2022-09-10T04:01:59.335Z,13.61
2022-09-10T04:06:55.696Z,13.43
2022-09-10T04:11:52.074Z,13.42
2022-09-10T04:16:48.597Z,13.34
2022-09-10T04:21:44.917Z,13.36
2022-09-10T04:26:41.256Z,13.44
2022-09-10T04:31:37.671Z,13.43
2022-09-10T04:36:33.980Z,13.44
2022-09-10T04:41:30.360Z,13.48
2022-09-10T04:46:26.680Z,13.49
2022-09-10T04:51:23.078Z,13.55
2022-09-10T04:56:20.337Z,13.64
2022-09-10T05:01:16.759Z,13.66
2022-09-10T05:06:13.158Z,13.72
2022-09-10T05:11:09.701Z,13.80
2022-09-10T05:16:06.433Z,13.83
2022-09-10T05:21:03.110Z,13.85
2022-09-10T05:25:59.850Z,13.90
2022-09-10T05:30:57.482Z,13.91
2022-09-10T05:35:53.821Z,13.94
2022-09-10T05:40:50.306Z,14.07
2022-09-10T05:45:47.112Z,14.16
2022-09-10T05:50:45.446Z,14.24
2022-09-10T05:55:41.804Z,14.36
2022-09-10T06:00:38.140Z,14.54
2022-09-10T06:05:34.825Z,14.66
2022-09-10T06:10:32.554Z,14.79
2022-09-10T06:15:28.923Z,14.88
2022-09-10T06:20:25.731Z,14.98
2022-09-10T06:25:22.060Z,15.14
2022-09-10T06:30:20.642Z,15.32
2022-09-10T06:35:16.945Z,15.57
2022-09-10T06:40:13.450Z,15.76
2022-09-10T06:45:10.157Z,15.78
2022-09-10T06:50:07.087Z,15.78
2022-09-10T06:55:04.114Z,15.91
2022-09-10T07:00:01.002Z,15.93
2022-09-10T07:04:57.446Z,15.81
2022-09-10T07:09:55.165Z,15.69
2022-09-10T07:14:52.697Z,15.75
2022-09-10T07:19:49.088Z,15.70
2022-09-10T07:24:45.918Z,15.72
2022-09-10T07:29:42.752Z,15.82
2022-09-10T07:34:39.069Z,15.99
2022-09-10T07:39:35.687Z,16.21
2022-09-10T07:44:32.023Z,16.32
2022-09-10T07:49:28.521Z,16.60
2022-09-10T07:54:25.146Z,16.66
2022-09-10T07:59:21.456Z,16.55
2022-09-10T08:04:18.240Z,16.31
2022-09-10T08:09:15.021Z,16.09
2022-09-10T08:14:13.249Z,16.29
2022-09-10T08:19:10.108Z,16.78
2022-09-10T08:24:07.565Z,17.14
2022-09-10T08:29:04.097Z,17.45
2022-09-10T08:34:01.505Z,17.54
2022-09-10T08:39:02.164Z,17.84
2022-09-10T08:44:11.507Z,17.66
2022-09-10T08:49:31.471Z,17.37
2022-09-10T08:54:34.541Z,17.06
2022-09-10T08:59:36.427Z,16.95
2022-09-10T09:04:58.444Z,16.95
2022-09-10T09:09:54.940Z,17.54
2022-09-10T09:14:57.384Z,17.48
2022-09-10T09:20:38.941Z,17.81
2022-09-10T09:26:04.082Z,18.05
2022-09-10T09:31:09.546Z,18.12
2022-09-10T09:36:07.099Z,18.00
2022-09-10T09:41:13.780Z,18.01
2022-09-10T09:46:16.697Z,18.19
2022-09-10T09:51:21.220Z,17.75
2022-09-10T09:56:42.115Z,17.73
2022-09-10T10:01:42.731Z,17.48
2022-09-10T10:06:47.543Z,17.32
2022-09-10T10:11:45.541Z,17.39
2022-09-10T10:16:41.871Z,18.14
2022-09-10T10:21:38.235Z,18.12
2022-09-10T10:26:35.890Z,18.12
2022-09-10T10:31:40.147Z,18.63
2022-09-10T10:37:13.245Z,18.64
2022-09-10T10:42:48.300Z,18.22
2022-09-10T10:47:51.594Z,18.01
2022-09-10T10:53:21.496Z,18.47
2022-09-10T10:58:17.849Z,18.64
2022-09-10T11:03:22.825Z,18.89
2022-09-10T11:08:27.838Z,19.37
2022-09-10T11:13:50.685Z,19.16
2022-09-10T11:18:54.307Z,19.01
2022-09-10T11:24:07.470Z,18.38
2022-09-10T11:29:31.499Z,18.10
2022-09-10T11:34:47.673Z,18.49
2022-09-10T11:39:53.529Z,18.93
2022-09-10T11:45:36.174Z,19.17
2022-09-10T11:50:39.906Z,18.94
2022-09-10T11:55:55.159Z,18.67
2022-09-10T12:01:23.268Z,18.73
2022-09-10T12:06:26.989Z,18.74
2022-09-10T12:11:32.614Z,18.57
2022-09-10T12:16:35.116Z,18.48
2022-09-10T12:21:54.556Z,18.36
2022-09-10T12:26:52.230Z,18.06
2022-09-10T12:32:07.092Z,17.81
2022-09-10T12:37:03.370Z,17.73
2022-09-10T12:42:02.310Z,17.60
2022-09-10T12:47:17.127Z,17.43
2022-09-10T12:52:22.553Z,17.30
2022-09-10T12:57:30.454Z,17.34
2022-09-10T13:02:29.677Z,17.39
2022-09-10T13:07:40.242Z,17.48
2022-09-10T13:12:41.772Z,17.57
2022-09-10T13:17:47.250Z,17.69
2022-09-10T13:23:23.641Z,17.85
2022-09-10T13:28:29.777Z,18.06
2022-09-10T13:33:33.270Z,18.20
2022-09-10T13:38:54.142Z,18.31
2022-09-10T13:44:08.637Z,18.35
2022-09-10T13:49:46.560Z,18.46
2022-09-10T13:54:49.490Z,18.71
2022-09-10T13:59:50.307Z,18.89
2022-09-10T14:04:47.869Z,19.06
2022-09-10T14:09:46.431Z,18.96
2022-09-10T14:14:47.721Z,18.88
2022-09-10T14:19:54.531Z,18.88
2022-09-10T14:25:01.707Z,18.78
2022-09-10T14:30:16.602Z,18.72
2022-09-10T14:35:38.115Z,18.58
2022-09-10T14:40:37.873Z,18.54
2022-09-10T14:45:49.742Z,18.42
2022-09-10T14:50:48.321Z,18.27
2022-09-10T14:55:44.674Z,18.11
2022-09-10T15:00:41.094Z,17.90
2022-09-10T15:05:39.228Z,18.05
2022-09-10T15:10:35.582Z,18.49
2022-09-10T15:15:32.012Z,18.56
2022-09-10T15:20:28.374Z,18.78
2022-09-10T15:25:44.688Z,19.21
2022-09-10T15:30:41.564Z,19.45
2022-09-10T15:35:38.936Z,19.48
2022-09-10T15:40:35.436Z,19.11
2022-09-10T15:45:35.780Z,19.33
2022-09-10T15:50:32.450Z,19.29
2022-09-10T15:55:29.196Z,18.72
2022-09-10T16:00:25.881Z,18.28
2022-09-10T16:05:22.225Z,18.13
2022-09-10T16:10:18.584Z,18.29
2022-09-10T16:15:15.390Z,18.33
2022-09-10T16:20:11.958Z,18.38
2022-09-10T16:25:10.105Z,18.32
2022-09-10T16:30:07.069Z,18.29
2022-09-10T16:35:04.888Z,18.29
2022-09-10T16:40:01.735Z,18.34
2022-09-10T16:44:58.184Z,18.15
2022-09-10T16:49:54.678Z,17.77
2022-09-10T16:54:52.650Z,17.47
2022-09-10T16:59:49.236Z,17.26
2022-09-10T17:04:45.654Z,17.16
2022-09-10T17:09:42.161Z,17.09
2022-09-10T17:14:39.490Z,16.95
2022-09-10T17:19:35.974Z,16.87
2022-09-10T17:24:32.422Z,16.74
2022-09-10T17:29:28.886Z,16.61
2022-09-10T17:34:26.531Z,16.55
2022-09-10T17:39:23.386Z,16.47
2022-09-10T17:44:20.069Z,16.36
2022-09-10T17:49:16.618Z,16.28
2022-09-10T17:54:13.560Z,16.18
2022-09-10T17:59:12.295Z,16.15
2022-09-10T18:04:12.726Z,15.98
2022-09-10T18:09:09.620Z,15.94
2022-09-10T18:14:07.105Z,15.93
2022-09-10T18:19:13.838Z,15.90
2022-09-10T18:24:13.412Z,15.86
2022-09-10T18:29:13.750Z,15.91
2022-09-10T18:34:13.306Z,15.87
2022-09-10T18:39:12.025Z,15.76
2022-09-10T18:44:16.261Z,15.58
2022-09-10T18:49:17.911Z,15.58
2022-09-10T18:54:18.213Z,15.65
2022-09-10T18:59:17.111Z,15.62
2022-09-10T19:04:16.593Z,15.41
2022-09-10T19:09:15.805Z,15.36
2022-09-10T19:14:17.895Z,15.38
2022-09-10T19:19:20.620Z,15.33
2022-09-10T19:24:25.393Z,15.40
2022-09-10T19:29:29.473Z,15.49
2022-09-10T19:34:26.876Z,15.59
2022-09-10T19:39:23.194Z,15.52
2022-09-10T19:44:20.019Z,15.39
2022-09-10T19:49:16.779Z,15.33
2022-09-10T19:54:13.961Z,15.39
2022-09-10T19:59:10.799Z,15.33
2022-09-10T20:04:09.165Z,15.22
2022-09-10T20:09:07.199Z,15.24
2022-09-10T20:14:21.657Z,15.29
2022-09-10T20:19:18.579Z,15.26
2022-09-10T20:24:16.122Z,15.22
2022-09-10T20:29:21.291Z,15.24
2022-09-10T20:34:20.276Z,15.21
2022-09-10T20:39:19.588Z,15.11
2022-09-10T20:44:17.133Z,14.96
2022-09-10T20:49:15.813Z,14.85
2022-09-10T20:54:16.108Z,14.85
2022-09-10T20:59:15.467Z,14.78
2022-09-10T21:04:13.122Z,14.65
2022-09-10T21:09:09.516Z,14.71
2022-09-10T21:14:07.819Z,14.70
2022-09-10T21:19:10.400Z,14.63
2022-09-10T21:24:17.962Z,14.57
2022-09-10T21:29:16.687Z,14.42
2022-09-10T21:34:13.961Z,14.49
2022-09-10T21:39:17.422Z,14.44
2022-09-10T21:44:16.104Z,14.37
2022-09-10T21:49:13.223Z,14.35
2022-09-10T21:54:20.845Z,14.29
2022-09-10T21:59:17.940Z,14.33
2022-09-10T22:04:19.981Z,14.32
2022-09-10T22:09:19.825Z,14.27
2022-09-10T22:14:18.286Z,14.19
2022-09-10T22:19:18.101Z,14.20
2022-09-10T22:24:17.226Z,14.25
2022-09-10T22:29:17.174Z,14.28
2022-09-10T22:34:15.961Z,14.23
2022-09-10T22:39:17.772Z,14.18
2022-09-10T22:44:14.601Z,14.30
2022-09-10T22:49:11.042Z,14.39
2022-09-10T22:54:08.794Z,14.40
2022-09-10T22:59:06.398Z,14.35
2022-09-10T23:04:05.005Z,14.25
2022-09-10T23:09:11.040Z,14.14
2022-09-10T23:14:11.154Z,14.08
2022-09-10T23:19:11.351Z,14.08
2022-09-10T23:24:08.024Z,14.14
2022-09-10T23:29:05.599Z,14.01
2022-09-10T23:34:04.955Z,14.12
2022-09-10T23:39:04.044Z,14.06
2022-09-10T23:44:00.541Z,14.01
2022-09-10T23:48:57.161Z,13.87
2022-09-10T23:53:54.624Z,13.73
2022-09-10T23:58:52.082Z,13.60
